createdAt,value
2023-05-01T00:01:38.828Z,5.03
2023-05-01T00:04:40.822Z,3.25
2023-05-01T00:07:42.720Z,3.23
2023-05-01T00:10:44.645Z,3.90
2023-05-01T00:13:46.701Z,2.70
2023-05-01T00:16:48.565Z,3.57
2023-05-01T00:19:54.447Z,3.80
2023-05-01T00:22:57.891Z,4.32
2023-05-01T00:25:59.679Z,3.40
2023-05-01T00:29:01.494Z,2.92
2023-05-01T00:32:05.847Z,3.03
2023-05-01T00:35:08.225Z,3.17
2023-05-01T00:38:10.236Z,3.33
2023-05-01T00:41:12.495Z,3.10
2023-05-01T00:44:14.696Z,2.75
2023-05-01T00:47:16.813Z,3.08
2023-05-01T00:50:18.775Z,3.40
2023-05-01T00:53:22.194Z,4.03
2023-05-01T00:56:25.348Z,3.65
2023-05-01T00:59:27.269Z,3.53
2023-05-01T01:02:29.188Z,3.63
2023-05-01T01:05:35.782Z,3.45
2023-05-01T01:08:46.196Z,2.90
2023-05-01T01:12:10.684Z,3.08
2023-05-01T01:15:50.747Z,2.65
2023-05-01T01:19:18.234Z,3.00
2023-05-01T01:22:24.108Z,3.08
2023-05-01T01:25:45.683Z,3.88
2023-05-01T01:29:10.994Z,3.50
2023-05-01T01:32:18.691Z,3.72
2023-05-01T01:35:24.453Z,3.25
2023-05-01T01:38:40.852Z,2.65
2023-05-01T01:41:47.832Z,3.00
2023-05-01T01:44:53.210Z,2.42
2023-05-01T01:47:57.477Z,2.65
2023-05-01T01:51:05.029Z,2.38
2023-05-01T01:54:08.389Z,2.88
2023-05-01T01:57:13.168Z,2.92
2023-05-01T02:00:16.615Z,3.00
2023-05-01T02:03:23.902Z,3.35
2023-05-01T02:06:27.099Z,2.28
2023-05-01T02:09:30.902Z,2.03
2023-05-01T02:12:34.275Z,2.83
2023-05-01T02:15:38.228Z,2.60
2023-05-01T02:18:41.054Z,3.88
2023-05-01T02:21:44.277Z,3.35
2023-05-01T02:24:47.432Z,3.05
2023-05-01T02:28:12.821Z,3.22
2023-05-01T02:31:14.944Z,3.25
2023-05-01T02:34:17.151Z,3.33
2023-05-01T02:37:19.125Z,2.90
2023-05-01T02:40:22.095Z,3.35
2023-05-01T02:43:27.911Z,3.22
2023-05-01T02:46:33.443Z,3.78
2023-05-01T02:49:36.695Z,4.03
2023-05-01T02:52:38.854Z,3.42
2023-05-01T02:55:59.521Z,3.78
2023-05-01T02:59:02.081Z,3.28
2023-05-01T03:02:04.354Z,3.72
2023-05-01T03:05:06.710Z,4.60
2023-05-01T03:08:08.616Z,3.72
2023-05-01T03:11:10.590Z,4.20
2023-05-01T03:14:12.648Z,4.20
2023-05-01T03:17:14.534Z,3.53
2023-05-01T03:20:16.536Z,3.10
2023-05-01T03:23:18.388Z,3.57
2023-05-01T03:26:20.302Z,4.57
2023-05-01T03:29:22.209Z,3.70
2023-05-01T03:32:24.317Z,2.53
2023-05-01T03:35:27.728Z,3.20
2023-05-01T03:38:30.897Z,3.13
2023-05-01T03:41:52.825Z,4.43
2023-05-01T03:44:59.999Z,3.50
2023-05-01T03:48:03.179Z,3.72
2023-05-01T03:51:06.087Z,3.22
2023-05-01T03:54:09.609Z,3.22
2023-05-01T03:57:27.592Z,3.50
2023-05-01T04:00:29.690Z,4.03
2023-05-01T04:03:31.698Z,3.93
2023-05-01T04:06:33.733Z,4.10
2023-05-01T04:09:35.649Z,3.20
2023-05-01T04:12:37.562Z,3.10
2023-05-01T04:15:39.518Z,3.45
2023-05-01T04:18:41.445Z,3.53
2023-05-01T04:21:43.358Z,3.40
2023-05-01T04:24:45.752Z,3.25
2023-05-01T04:27:47.927Z,6.13
2023-05-01T04:30:50.995Z,4.38
2023-05-01T04:33:53.810Z,3.97
2023-05-01T04:36:57.344Z,3.97
2023-05-01T04:39:59.429Z,2.78
2023-05-01T04:43:01.987Z,4.35
2023-05-01T04:46:05.130Z,3.33
2023-05-01T04:49:08.381Z,3.30
2023-05-01T04:52:10.822Z,3.92
2023-05-01T04:55:26.189Z,4.20
2023-05-01T04:58:37.744Z,3.28
2023-05-01T05:01:45.463Z,2.85
2023-05-01T05:04:47.581Z,2.77
2023-05-01T05:07:49.653Z,2.92
2023-05-01T05:11:07.355Z,3.10
2023-05-01T05:14:24.099Z,3.08
2023-05-01T05:17:26.931Z,4.20
2023-05-01T05:20:29.004Z,3.20
2023-05-01T05:23:31.403Z,3.30
2023-05-01T05:26:33.430Z,3.58
2023-05-01T05:29:37.855Z,3.83
2023-05-01T05:32:39.939Z,3.10
2023-05-01T05:35:42.052Z,2.50
2023-05-01T05:38:44.088Z,2.20
2023-05-01T05:41:50.178Z,2.35
2023-05-01T05:44:52.157Z,2.83
2023-05-01T05:47:54.107Z,2.72
2023-05-01T05:50:56.768Z,3.73
2023-05-01T05:53:59.524Z,2.42
2023-05-01T05:57:03.811Z,2.40
2023-05-01T06:00:09.405Z,2.10
2023-05-01T06:03:23.681Z,2.70
2023-05-01T06:06:28.386Z,3.65
2023-05-01T06:09:30.827Z,4.30
2023-05-01T06:12:34.163Z,2.00
2023-05-01T06:15:38.483Z,2.08
2023-05-01T06:18:42.405Z,1.83
2023-05-01T06:21:45.749Z,1.95
2023-05-01T06:24:47.858Z,1.90
2023-05-01T06:27:50.746Z,2.20
2023-05-01T06:30:54.696Z,1.52
2023-05-01T06:33:57.816Z,1.80
2023-05-01T06:37:18.437Z,1.65
2023-05-01T06:40:20.360Z,1.27
2023-05-01T06:43:22.523Z,1.60
2023-05-01T06:46:24.568Z,1.50
2023-05-01T06:49:26.500Z,2.57
2023-05-01T06:52:28.608Z,1.47
2023-05-01T06:55:33.284Z,1.37
2023-05-01T06:58:35.873Z,1.98
2023-05-01T07:01:37.849Z,2.70
2023-05-01T07:04:40.142Z,1.87
2023-05-01T07:07:47.369Z,2.03
2023-05-01T07:10:54.173Z,1.48
2023-05-01T07:13:56.121Z,1.90
2023-05-01T07:16:58.569Z,1.80
2023-05-01T07:20:01.717Z,2.00
2023-05-01T07:23:05.899Z,2.95
2023-05-01T07:26:09.141Z,1.77
2023-05-01T07:29:11.867Z,1.77
2023-05-01T07:32:14.513Z,1.80
2023-05-01T07:35:16.676Z,1.88
2023-05-01T07:38:18.548Z,1.60
2023-05-01T07:41:21.877Z,2.60
2023-05-01T07:44:23.994Z,1.80
2023-05-01T07:47:27.686Z,2.90
2023-05-01T07:50:29.690Z,3.85
2023-05-01T07:53:32.001Z,2.95
2023-05-01T07:56:33.944Z,2.40
2023-05-01T07:59:35.814Z,1.50
2023-05-01T08:02:37.891Z,2.60
2023-05-01T08:05:41.717Z,2.25
2023-05-01T08:08:43.636Z,3.83
2023-05-01T08:11:45.648Z,2.72
2023-05-01T08:14:47.603Z,2.37
2023-05-01T08:17:51.263Z,2.83
2023-05-01T08:20:53.264Z,2.80
2023-05-01T08:23:56.436Z,2.57
2023-05-01T08:26:58.475Z,3.05
2023-05-01T08:30:00.342Z,1.97
2023-05-01T08:33:02.311Z,2.33
2023-05-01T08:36:04.350Z,2.30
2023-05-01T08:39:06.557Z,2.37
2023-05-01T08:42:08.701Z,1.85
2023-05-01T08:45:11.756Z,2.75
2023-05-01T08:48:16.367Z,1.75
2023-05-01T08:51:21.283Z,2.72
2023-05-01T08:54:23.662Z,2.55
2023-05-01T08:57:27.433Z,3.42
2023-05-01T09:00:31.218Z,3.28
2023-05-01T09:03:33.462Z,3.47
2023-05-01T09:06:36.321Z,2.70
2023-05-01T09:12:41.743Z,3.13
2023-05-01T09:15:44.306Z,5.50
2023-05-01T09:18:46.797Z,3.53
2023-05-01T09:21:48.950Z,3.97
2023-05-01T09:24:50.831Z,5.93
2023-05-01T09:27:52.839Z,4.45
2023-05-01T09:30:54.798Z,4.37
2023-05-01T09:33:58.326Z,4.55
2023-05-01T09:37:00.312Z,5.35
2023-05-01T09:40:09.299Z,6.20
2023-05-01T09:43:11.876Z,4.35
2023-05-01T09:46:13.945Z,4.07
2023-05-01T09:49:16.232Z,6.23
2023-05-01T09:52:18.203Z,5.07
2023-05-01T09:55:20.532Z,8.30
2023-05-01T09:58:28.809Z,5.80
2023-05-01T10:01:41.348Z,5.55
2023-05-01T10:04:43.616Z,5.95
2023-05-01T10:08:02.488Z,5.65
2023-05-01T10:11:05.379Z,6.10
2023-05-01T10:17:20.751Z,5.72
2023-05-01T10:20:22.766Z,6.50
2023-05-01T10:23:25.550Z,4.70
2023-05-01T10:29:31.513Z,6.28
2023-05-01T10:32:34.350Z,6.63
2023-05-01T10:35:40.639Z,5.32
2023-05-01T10:38:48.297Z,5.38
2023-05-01T10:41:59.260Z,6.40
2023-05-01T10:45:30.833Z,5.95
2023-05-01T10:48:39.035Z,5.93
2023-05-01T10:51:58.911Z,6.43
2023-05-01T10:55:32.088Z,4.63
2023-05-01T10:58:40.819Z,5.10
2023-05-01T11:01:52.174Z,6.57
2023-05-01T11:04:56.375Z,5.60
2023-05-01T11:08:30.602Z,5.50
2023-05-01T11:11:32.428Z,5.00
2023-05-01T11:14:57.549Z,4.97
2023-05-01T11:18:04.094Z,5.00
2023-05-01T11:21:06.483Z,7.07
2023-05-01T11:24:09.383Z,4.82
2023-05-01T11:27:13.827Z,4.18
2023-05-01T11:30:17.420Z,3.78
2023-05-01T11:33:25.894Z,4.20
2023-05-01T11:36:28.877Z,4.53
2023-05-01T11:39:30.766Z,4.55
2023-05-01T11:42:32.698Z,4.30
2023-05-01T11:45:38.035Z,4.53
2023-05-01T11:48:40.181Z,3.95
2023-05-01T11:51:42.106Z,4.03
2023-05-01T11:54:48.501Z,5.67
2023-05-01T11:57:52.428Z,3.15
2023-05-01T12:00:54.431Z,3.53
2023-05-01T12:03:56.451Z,4.07
2023-05-01T12:06:58.532Z,3.55
2023-05-01T12:10:00.857Z,4.38
2023-05-01T12:13:04.598Z,4.63
2023-05-01T12:16:06.880Z,4.78
2023-05-01T12:19:09.799Z,4.93
2023-05-01T12:22:11.759Z,4.07
2023-05-01T12:25:14.524Z,4.10
2023-05-01T12:28:20.494Z,4.13
2023-05-01T12:31:23.411Z,3.58
2023-05-01T12:34:32.462Z,3.53
2023-05-01T12:37:34.548Z,4.18
2023-05-01T12:40:36.426Z,4.25
2023-05-01T12:43:38.423Z,4.65
2023-05-01T12:46:40.597Z,6.10
2023-05-01T12:49:42.745Z,3.65
2023-05-01T12:52:44.674Z,5.43
2023-05-01T12:55:48.352Z,4.93
2023-05-01T12:58:52.629Z,5.32
2023-05-01T13:02:00.475Z,6.05
2023-05-01T13:05:09.757Z,8.48
2023-05-01T13:08:11.687Z,16.48
2023-05-01T13:11:16.321Z,10.80
2023-05-01T13:14:18.217Z,5.10
2023-05-01T13:17:29.058Z,7.50
2023-05-01T13:20:31.623Z,4.53
2023-05-01T13:23:33.767Z,4.00
2023-05-01T13:26:36.130Z,4.65
2023-05-01T13:29:46.395Z,4.22
2023-05-01T13:32:49.669Z,4.43
2023-05-01T13:35:51.710Z,9.68
2023-05-01T13:38:56.307Z,6.65
2023-05-01T13:41:58.712Z,4.13
2023-05-01T13:45:03.033Z,4.35
2023-05-01T13:48:05.417Z,3.90
2023-05-01T13:51:11.642Z,3.30
2023-05-01T13:54:14.146Z,5.22
2023-05-01T13:57:17.429Z,3.65
2023-05-01T14:00:20.768Z,3.63
2023-05-01T14:03:22.826Z,3.83
2023-05-01T14:06:24.824Z,3.42
2023-05-01T14:09:28.293Z,5.97
2023-05-01T14:12:31.865Z,5.70
2023-05-01T14:15:34.139Z,6.47
2023-05-01T14:18:36.688Z,4.57
2023-05-01T14:24:44.492Z,4.18
2023-05-01T14:27:46.304Z,4.90
2023-05-01T14:30:49.622Z,6.90
2023-05-01T14:33:58.670Z,4.10
2023-05-01T14:37:00.656Z,4.07
2023-05-01T14:40:03.722Z,2.75
2023-05-01T14:43:06.134Z,3.45
2023-05-01T14:46:08.340Z,3.45
2023-05-01T14:49:11.751Z,3.97
2023-05-01T14:52:19.645Z,3.92
2023-05-01T14:55:28.070Z,3.63
2023-05-01T14:58:30.030Z,3.38
2023-05-01T15:01:32.446Z,3.43
2023-05-01T15:04:34.439Z,4.20
2023-05-01T15:07:36.397Z,2.55
2023-05-01T15:10:38.775Z,3.33
2023-05-01T15:13:42.670Z,3.17
2023-05-01T15:16:44.627Z,5.32
2023-05-01T15:19:46.671Z,3.85
2023-05-01T15:22:48.566Z,3.63
2023-05-01T15:25:50.961Z,5.93
2023-05-01T15:28:53.067Z,4.25
2023-05-01T15:32:08.160Z,4.30
2023-05-01T15:35:14.030Z,3.85
2023-05-01T15:38:18.740Z,3.25
2023-05-01T15:41:21.406Z,3.95
2023-05-01T15:44:23.322Z,3.55
2023-05-01T15:47:25.271Z,8.18
2023-05-01T15:50:27.740Z,4.47
2023-05-01T15:53:29.646Z,4.50
2023-05-01T15:56:36.761Z,4.00
2023-05-01T15:59:41.454Z,6.05
2023-05-01T16:02:44.715Z,8.30
2023-05-01T16:05:49.542Z,5.47
2023-05-01T16:08:51.907Z,5.15
2023-05-01T16:11:53.867Z,9.50
2023-05-01T16:14:56.220Z,6.13
2023-05-01T16:17:58.506Z,6.15
2023-05-01T16:21:01.064Z,4.57
2023-05-01T16:24:03.117Z,5.78
2023-05-01T16:27:05.060Z,4.80
2023-05-01T16:30:08.639Z,4.60
2023-05-01T16:33:18.804Z,3.70
2023-05-01T16:36:21.502Z,4.13
2023-05-01T16:39:23.845Z,4.18
2023-05-01T16:42:25.879Z,4.53
2023-05-01T16:45:28.119Z,6.47
2023-05-01T16:48:31.744Z,3.78
2023-05-01T16:51:33.661Z,3.72
2023-05-01T16:54:36.296Z,3.50
2023-05-01T17:00:41.336Z,4.25
2023-05-01T17:03:43.277Z,5.45
2023-05-01T17:06:45.263Z,4.30
2023-05-01T17:09:47.174Z,3.88
2023-05-01T17:12:49.179Z,4.10
2023-05-01T17:15:52.669Z,4.65
2023-05-01T17:18:54.735Z,8.30
2023-05-01T17:21:58.202Z,7.07
2023-05-01T17:25:02.487Z,6.38
2023-05-01T17:28:04.420Z,6.28
2023-05-01T17:31:06.389Z,6.40
2023-05-01T17:34:08.253Z,6.00
2023-05-01T17:37:10.220Z,6.53
2023-05-01T17:40:12.420Z,8.52
2023-05-01T17:43:14.283Z,8.30
2023-05-01T17:46:17.117Z,10.57
2023-05-01T17:49:19.053Z,8.68
2023-05-01T17:52:21.239Z,8.90
2023-05-01T17:55:23.192Z,7.68
2023-05-01T17:58:25.001Z,8.50
2023-05-01T18:01:27.034Z,10.07
2023-05-01T18:04:29.626Z,10.52
2023-05-01T18:07:31.613Z,11.68
2023-05-01T18:10:34.040Z,11.73
2023-05-01T18:13:40.011Z,12.93
2023-05-01T18:16:42.195Z,15.68
2023-05-01T18:19:44.114Z,18.60
2023-05-01T18:22:46.045Z,19.83
2023-05-01T18:25:48.278Z,19.30
2023-05-01T18:28:50.632Z,19.50
2023-05-01T18:31:54.715Z,21.92
2023-05-01T18:34:56.834Z,19.15
2023-05-01T18:37:58.652Z,29.47
2023-05-01T18:41:00.578Z,28.50
2023-05-01T18:44:04.154Z,28.48
2023-05-01T18:47:06.098Z,36.05
2023-05-01T18:50:10.114Z,34.17
2023-05-01T18:53:12.026Z,36.10
2023-05-01T18:56:13.883Z,33.15
2023-05-01T18:59:17.212Z,38.13
2023-05-01T19:02:19.182Z,36.85
2023-05-01T19:05:22.723Z,32.43
2023-05-01T19:08:24.719Z,29.85
2023-05-01T19:11:30.420Z,23.00
2023-05-01T19:14:32.352Z,20.13
2023-05-01T19:17:34.273Z,19.17
2023-05-01T19:20:36.135Z,18.40
2023-05-01T19:23:39.956Z,16.80
2023-05-01T19:26:41.835Z,16.10
2023-05-01T19:29:44.657Z,13.38
2023-05-01T19:32:46.768Z,11.77
2023-05-01T19:35:48.673Z,10.48
2023-05-01T19:38:50.606Z,9.48
2023-05-01T19:41:53.075Z,17.67
2023-05-01T19:44:55.010Z,18.45
2023-05-01T19:47:56.994Z,22.23
2023-05-01T19:50:58.994Z,20.97
2023-05-01T19:54:01.533Z,21.33
2023-05-01T19:57:03.616Z,21.67
2023-05-01T20:00:07.156Z,26.38
